createdAt,value
2017-08-09T00:00:08.464Z,63.47
2017-08-09T00:01:17.458Z,63.47
2017-08-09T00:02:26.592Z,63.37
2017-08-09T00:03:35.732Z,63.56
2017-08-09T00:04:44.927Z,63.76
2017-08-09T00:05:54.143Z,63.76
2017-08-09T00:07:03.349Z,63.56
2017-08-09T00:08:12.733Z,63.66
2017-08-09T00:09:21.697Z,63.85
2017-08-09T00:10:30.675Z,63.85
2017-08-09T00:11:39.642Z,63.66
2017-08-09T00:12:48.608Z,63.66
2017-08-09T00:13:57.566Z,63.85
2017-08-09T00:15:06.537Z,64.05
2017-08-09T00:16:15.495Z,64.05
2017-08-09T00:17:24.783Z,64.24
2017-08-09T00:18:34.065Z,64.24
2017-08-09T00:19:43.081Z,64.34
2017-08-09T00:20:52.054Z,64.24
2017-08-09T00:22:01.014Z,64.34
2017-08-09T00:23:09.974Z,64.24
2017-08-09T00:24:19.280Z,64.05
2017-08-09T00:25:28.340Z,64.05
2017-08-09T00:26:37.304Z,64.14
2017-08-09T00:27:46.261Z,64.11
2017-08-09T00:28:55.217Z,64.14
2017-08-09T00:30:04.184Z,64.14
2017-08-09T00:31:13.154Z,64.05
2017-08-09T00:32:22.121Z,64.24
2017-08-09T00:33:31.079Z,64.24
2017-08-09T00:34:40.045Z,64.05
2017-08-09T00:35:49.002Z,64.24
2017-08-09T00:36:57.962Z,64.24
2017-08-09T00:38:06.921Z,64.24
2017-08-09T00:39:15.878Z,63.92
2017-08-09T00:40:24.844Z,64.24
2017-08-09T00:41:33.803Z,64.05
2017-08-09T00:42:42.761Z,63.73
2017-08-09T00:43:52.038Z,63.95
2017-08-09T00:45:00.994Z,63.92
2017-08-09T00:46:09.964Z,63.82
2017-08-09T00:47:18.919Z,63.82
2017-08-09T00:48:27.876Z,64.01
2017-08-09T00:49:36.835Z,64.01
2017-08-09T00:50:45.804Z,63.85
2017-08-09T00:51:55.091Z,64.21
2017-08-09T00:53:04.064Z,64.11
2017-08-09T00:54:13.029Z,64.21
2017-08-09T00:55:21.986Z,64.21
2017-08-09T00:56:30.942Z,64.4
2017-08-09T00:57:39.901Z,64.4
2017-08-09T00:58:48.857Z,64.5
2017-08-09T00:59:57.819Z,64.5
2017-08-09T01:01:06.773Z,64.4
2017-08-09T01:02:15.724Z,64.89
2017-08-09T01:03:24.683Z,64.59
2017-08-09T01:04:33.644Z,64.89
2017-08-09T01:05:42.605Z,64.4
2017-08-09T01:06:51.566Z,64.89
2017-08-09T01:08:00.520Z,64.4
2017-08-09T01:09:09.489Z,64.69
2017-08-09T01:10:18.446Z,64.69
2017-08-09T01:11:27.402Z,64.59
2017-08-09T01:12:36.361Z,64.69
2017-08-09T01:13:45.320Z,64.59
2017-08-09T01:14:54.288Z,64.5
2017-08-09T01:16:03.251Z,64.98
2017-08-09T01:17:12.221Z,64.59
2017-08-09T01:18:21.183Z,64.59
2017-08-09T01:19:30.143Z,64.69
2017-08-09T01:20:39.103Z,64.5
2017-08-09T01:21:48.069Z,64.4
2017-08-09T01:22:57.032Z,64.5
2017-08-09T01:24:06.127Z,64.59
2017-08-09T01:25:15.554Z,64.69
2017-08-09T01:26:24.769Z,64.98
2017-08-09T01:27:34.057Z,64.98
2017-08-09T01:28:43.016Z,64.89
2017-08-09T01:29:51.982Z,64.69
2017-08-09T01:31:00.941Z,64.89
2017-08-09T01:32:09.906Z,64.98
2017-08-09T01:33:18.873Z,64.79
2017-08-09T01:34:27.835Z,64.59
2017-08-09T01:35:36.799Z,64.59
2017-08-09T01:36:45.769Z,65.27
2017-08-09T01:37:54.732Z,65.17
2017-08-09T01:39:03.697Z,65.08
2017-08-09T01:40:12.682Z,64.98
2017-08-09T01:41:21.660Z,64.79
2017-08-09T01:42:30.632Z,64.89
2017-08-09T01:43:39.590Z,65.47
2017-08-09T01:44:48.551Z,65.27
2017-08-09T01:45:57.535Z,65.27
2017-08-09T01:47:06.824Z,65.27
2017-08-09T01:48:16.118Z,65.17
2017-08-09T01:49:25.080Z,65.17
2017-08-09T01:50:34.074Z,65.47
2017-08-09T01:51:43.040Z,65.75
2017-08-09T01:52:52.003Z,65.56
2017-08-09T01:54:00.957Z,65.27
2017-08-09T01:55:09.904Z,65.95
2017-08-09T01:56:18.865Z,65.66
2017-08-09T01:57:27.829Z,65.66
2017-08-09T01:58:36.794Z,65.75
2017-08-09T01:59:45.753Z,65.66
2017-08-09T02:00:54.711Z,65.37
2017-08-09T02:02:03.674Z,66.05
2017-08-09T02:03:12.629Z,67.3
2017-08-09T02:04:21.588Z,68.46
2017-08-09T02:05:30.553Z,69.23
2017-08-09T02:06:39.515Z,69.81
2017-08-09T02:07:48.476Z,70.26
2017-08-09T02:08:57.441Z,70.64
2017-08-09T02:10:06.756Z,71.22
2017-08-09T02:11:15.718Z,72.28
2017-08-09T02:12:24.676Z,73.44
2017-08-09T02:13:33.631Z,74.21
2017-08-09T02:14:42.619Z,75.09
2017-08-09T02:15:51.594Z,75.95
2017-08-09T02:17:00.556Z,77.11
2017-08-09T02:18:09.527Z,77.11
2017-08-09T02:19:18.490Z,76.92
2017-08-09T02:20:27.775Z,77.26
2017-08-09T02:21:36.733Z,77.26
2017-08-09T02:22:45.706Z,76.88
2017-08-09T02:23:54.661Z,77.07
2017-08-09T02:25:03.619Z,77.17
2017-08-09T02:26:12.591Z,76.88
2017-08-09T02:27:21.549Z,77.07
2017-08-09T02:28:30.512Z,77.46
2017-08-09T02:29:39.472Z,78.23
2017-08-09T02:30:48.439Z,78.23
2017-08-09T02:31:57.403Z,79.49
2017-08-09T02:33:06.357Z,80.16
2017-08-09T02:34:15.319Z,81.22
2017-08-09T02:35:24.281Z,81.6
2017-08-09T02:36:33.568Z,81.66
2017-08-09T02:37:42.526Z,81.66
2017-08-09T02:38:51.488Z,82.05
2017-08-09T02:40:00.785Z,82.24
2017-08-09T02:41:10.094Z,82.72
2017-08-09T02:42:19.426Z,82.34
2017-08-09T02:43:28.708Z,82.34
2017-08-09T02:44:37.681Z,82.92
2017-08-09T02:45:46.642Z,82.34
2017-08-09T02:46:55.613Z,82.34
2017-08-09T02:48:04.571Z,82.14
2017-08-09T02:49:13.538Z,82.34
2017-08-09T02:50:22.500Z,81.85
2017-08-09T02:51:31.463Z,81.27
2017-08-09T02:52:40.422Z,80.69
2017-08-09T02:53:49.386Z,80.69
2017-08-09T02:54:58.353Z,81.09
2017-08-09T02:56:07.306Z,80.41
2017-08-09T02:57:16.445Z,80.12
2017-08-09T02:58:25.641Z,79.74
2017-08-09T02:59:34.601Z,79.64
2017-08-09T03:00:43.556Z,79.25
2017-08-09T03:01:52.514Z,78.67
2017-08-09T03:03:01.488Z,78.48
2017-08-09T03:04:10.442Z,78.19
2017-08-09T03:05:19.398Z,77.61
2017-08-09T03:06:28.356Z,77.81
2017-08-09T03:07:37.307Z,77.61
2017-08-09T03:08:46.597Z,77.51
2017-08-09T03:09:55.852Z,77.03
2017-08-09T03:11:04.814Z,77.36
2017-08-09T03:12:13.767Z,77.26
2017-08-09T03:13:22.724Z,76.59
2017-08-09T03:14:31.684Z,76.5
2017-08-09T03:15:40.648Z,76.07
2017-08-09T03:16:49.609Z,76.59
2017-08-09T03:17:58.567Z,76.01
2017-08-09T03:19:07.863Z,75.53
2017-08-09T03:20:16.822Z,75.53
2017-08-09T03:21:25.776Z,75.14
2017-08-09T03:22:34.730Z,75.82
2017-08-09T03:23:43.688Z,75.92
2017-08-09T03:24:52.644Z,76.01
2017-08-09T03:26:01.598Z,76.4
2017-08-09T03:27:10.557Z,76.01
2017-08-09T03:28:19.846Z,76.2
2017-08-09T03:29:28.811Z,76.4
2017-08-09T03:30:37.774Z,77.03
2017-08-09T03:31:47.062Z,76.78
2017-08-09T03:32:56.025Z,76.65
2017-08-09T03:34:04.993Z,76.98
2017-08-09T03:35:13.985Z,76.78
2017-08-09T03:36:22.944Z,76.78
2017-08-09T03:37:31.900Z,76.5
2017-08-09T03:38:40.866Z,76.2
2017-08-09T03:39:49.823Z,76.59
2017-08-09T03:40:58.775Z,75.92
2017-08-09T03:42:07.728Z,75.43
2017-08-09T03:43:17.005Z,75.43
2017-08-09T03:44:25.971Z,75.53
2017-08-09T03:45:34.934Z,74.95
2017-08-09T03:46:43.882Z,75.05
2017-08-09T03:47:52.838Z,74.85
2017-08-09T03:49:01.800Z,74.76
2017-08-09T03:50:10.757Z,74.85
2017-08-09T03:51:19.721Z,75.34
2017-08-09T03:52:28.685Z,75.34
2017-08-09T03:53:37.650Z,74.47
2017-08-09T03:54:46.614Z,74.76
2017-08-09T03:55:55.594Z,74.85
2017-08-09T03:57:04.567Z,74.76
2017-08-09T03:58:13.530Z,74.95
2017-08-09T03:59:22.477Z,75.05
2017-08-09T04:00:31.440Z,75.14
2017-08-09T04:01:40.410Z,74.95
2017-08-09T04:02:49.368Z,74.76
2017-08-09T04:03:58.321Z,74.47
2017-08-09T04:05:07.282Z,74.47
2017-08-09T04:06:16.254Z,74.47
2017-08-09T04:07:25.211Z,74.57
2017-08-09T04:08:34.185Z,74.66
2017-08-09T04:09:43.141Z,74.66
2017-08-09T04:10:52.097Z,74.27
2017-08-09T04:12:01.060Z,74.47
2017-08-09T04:13:10.382Z,74.76
2017-08-09T04:14:19.665Z,75.05
2017-08-09T04:15:28.627Z,74.57
2017-08-09T04:16:37.587Z,75.43
2017-08-09T04:17:46.544Z,75.01
2017-08-09T04:18:55.510Z,75.53
2017-08-09T04:20:04.473Z,75.14
2017-08-09T04:21:13.428Z,74.76
2017-08-09T04:22:22.380Z,75.24
2017-08-09T04:23:31.338Z,75.24
2017-08-09T04:24:40.301Z,74.95
2017-08-09T04:25:49.260Z,74.76
2017-08-09T04:26:58.233Z,75.14
2017-08-09T04:28:07.198Z,74.82
2017-08-09T04:29:16.164Z,74.76
2017-08-09T04:30:25.128Z,74.76
2017-08-09T04:31:34.095Z,75.53
2017-08-09T04:32:43.153Z,74.85
2017-08-09T04:33:52.110Z,75.05
2017-08-09T04:35:01.068Z,75.43
2017-08-09T04:36:10.356Z,75.59
2017-08-09T04:37:19.316Z,75.4
2017-08-09T04:38:28.612Z,75.4
2017-08-09T04:39:37.573Z,75.4
2017-08-09T04:40:46.529Z,75.1
2017-08-09T04:41:55.491Z,75.49
2017-08-09T04:43:04.447Z,75.49
2017-08-09T04:44:13.430Z,75.4
2017-08-09T04:45:22.387Z,75.59
2017-08-09T04:46:31.349Z,75.49
2017-08-09T04:47:40.300Z,75.59
2017-08-09T04:48:49.258Z,75.68
2017-08-09T04:49:58.216Z,75.68
2017-08-09T04:51:07.176Z,75.68
2017-08-09T04:52:16.144Z,75.78
2017-08-09T04:53:25.114Z,75.88
2017-08-09T04:54:34.093Z,75.88
2017-08-09T04:55:43.048Z,75.88
2017-08-09T04:56:52.000Z,75.68
2017-08-09T04:58:00.966Z,75.68
2017-08-09T04:59:09.929Z,76.36
2017-08-09T05:00:18.879Z,76.17
2017-08-09T05:01:27.842Z,76.17
2017-08-09T05:02:36.811Z,76.07
2017-08-09T05:03:45.774Z,76.07
2017-08-09T05:04:54.739Z,76.65
2017-08-09T05:06:03.693Z,76.55
2017-08-09T05:07:12.641Z,76.75
2017-08-09T05:08:21.608Z,76.75
2017-08-09T05:09:30.569Z,76.75
2017-08-09T05:10:39.537Z,76.75
2017-08-09T05:11:48.496Z,76.84
2017-08-09T05:12:57.452Z,76.84
2017-08-09T05:14:06.417Z,76.93
2017-08-09T05:15:15.374Z,76.84
2017-08-09T05:16:24.335Z,76.65
2017-08-09T05:17:33.296Z,76.93
2017-08-09T05:18:42.249Z,76.93
2017-08-09T05:19:51.205Z,76.65
2017-08-09T05:21:00.162Z,76.84
2017-08-09T05:22:09.122Z,76.75
2017-08-09T05:23:18.083Z,76.65
2017-08-09T05:24:27.050Z,76.75
2017-08-09T05:25:36.023Z,76.45
2017-08-09T05:26:44.985Z,76.55
2017-08-09T05:27:53.954Z,76.17
2017-08-09T05:29:02.931Z,76.26
2017-08-09T05:30:11.889Z,76.55
2017-08-09T05:31:20.850Z,75.88
2017-08-09T05:32:29.818Z,75.78
2017-08-09T05:33:38.781Z,75.97
2017-08-09T05:34:47.736Z,75.78
2017-08-09T05:35:57.029Z,75.78
2017-08-09T05:37:05.996Z,75.97
2017-08-09T05:38:14.958Z,75.97
2017-08-09T05:39:23.917Z,75.59
2017-08-09T05:40:32.880Z,75.4
2017-08-09T05:41:41.845Z,75.68
2017-08-09T05:42:50.797Z,75.68
2017-08-09T05:43:59.763Z,75.68
2017-08-09T05:45:08.727Z,75.49
2017-08-09T05:46:17.687Z,75.53
2017-08-09T05:47:26.649Z,75.49
2017-08-09T05:48:35.607Z,75.43
2017-08-09T05:49:44.565Z,75.43
2017-08-09T05:50:53.534Z,75.01
2017-08-09T05:52:02.826Z,75.4
2017-08-09T05:53:11.794Z,74.95
2017-08-09T05:54:20.745Z,75.2
2017-08-09T05:55:29.699Z,74.85
2017-08-09T05:56:38.657Z,74.72
2017-08-09T05:57:47.614Z,74.47
2017-08-09T05:58:56.575Z,74.66
2017-08-09T06:00:05.531Z,74.24
2017-08-09T06:01:14.499Z,74.18
2017-08-09T06:02:23.462Z,73.95
2017-08-09T06:03:32.417Z,74.05
2017-08-09T06:04:41.386Z,74.18
2017-08-09T06:05:50.340Z,73.85
2017-08-09T06:06:59.295Z,73.27
2017-08-09T06:08:08.249Z,73.27
2017-08-09T06:09:17.218Z,73.27
2017-08-09T06:10:26.172Z,73.27
2017-08-09T06:11:35.132Z,73.18
2017-08-09T06:12:44.090Z,73.47
2017-08-09T06:13:53.051Z,72.92
2017-08-09T06:15:02.338Z,72.6
2017-08-09T06:16:11.625Z,72.6
2017-08-09T06:17:20.605Z,72.89
2017-08-09T06:18:29.563Z,72.69
2017-08-09T06:19:38.517Z,72.6
2017-08-09T06:20:47.471Z,72.5
2017-08-09T06:21:56.427Z,72.21
2017-08-09T06:23:05.394Z,72.31
2017-08-09T06:24:14.350Z,72.41
2017-08-09T06:25:23.310Z,72.21
2017-08-09T06:26:32.272Z,71.15
2017-08-09T06:27:41.239Z,71.28
2017-08-09T06:28:50.199Z,70.57
2017-08-09T06:29:59.156Z,70.51
2017-08-09T06:31:08.116Z,70.22
2017-08-09T06:32:17.102Z,70.13
2017-08-09T06:33:26.391Z,70.03
2017-08-09T06:34:35.360Z,69.64
2017-08-09T06:35:44.319Z,69.74
2017-08-09T06:36:53.332Z,69.74
2017-08-09T06:38:02.294Z,69.45
2017-08-09T06:39:11.249Z,69.45
2017-08-09T06:40:20.552Z,69.35
2017-08-09T06:41:29.514Z,69.35
2017-08-09T06:42:38.846Z,69.26
2017-08-09T06:43:48.384Z,69.35
2017-08-09T06:44:57.537Z,69.45
2017-08-09T06:46:06.527Z,68.97
2017-08-09T06:47:15.647Z,68.49
2017-08-09T06:48:25.910Z,68.1
2017-08-09T06:49:35.519Z,67.71
2017-08-09T06:50:44.605Z,67.91
2017-08-09T06:51:53.577Z,67.33
2017-08-09T06:53:02.542Z,66.97
2017-08-09T06:54:11.573Z,67.46
2017-08-09T06:55:20.537Z,67.07
2017-08-09T06:56:29.512Z,66.97
2017-08-09T06:57:38.713Z,66.3
2017-08-09T06:58:47.689Z,66.49
2017-08-09T06:59:56.828Z,65.34
2017-08-09T07:01:06.023Z,65.14
2017-08-09T07:02:14.983Z,64.95
2017-08-09T07:03:24.331Z,64.76
2017-08-09T07:04:33.290Z,64.08
2017-08-09T07:05:42.257Z,63.98
2017-08-09T07:06:51.220Z,64.18
2017-08-09T07:08:00.181Z,63.73
2017-08-09T07:09:09.144Z,63.31
2017-08-09T07:10:18.109Z,63.31
2017-08-09T07:11:27.066Z,63.4
2017-08-09T07:12:36.024Z,63.21
2017-08-09T07:13:44.994Z,63.4
2017-08-09T07:14:53.957Z,63.89
2017-08-09T07:16:02.922Z,63.5
2017-08-09T07:17:11.878Z,63.5
2017-08-09T07:18:20.852Z,63.4
2017-08-09T07:19:29.810Z,63.7
2017-08-09T07:20:38.774Z,63.43
2017-08-09T07:21:47.852Z,63.34
2017-08-09T07:22:57.027Z,63.53
2017-08-09T07:24:06.258Z,62.95
2017-08-09T07:25:15.254Z,62.95
2017-08-09T07:26:24.214Z,62.95
2017-08-09T07:27:33.180Z,63.05
2017-08-09T07:28:42.131Z,63.15
2017-08-09T07:29:51.090Z,62.57
2017-08-09T07:31:00.048Z,62.76
2017-08-09T07:32:09.007Z,61.6
2017-08-09T07:33:18.084Z,61.63
2017-08-09T07:34:27.082Z,61.31
2017-08-09T07:35:36.038Z,61.34
2017-08-09T07:36:45.401Z,60.96
2017-08-09T07:37:55.066Z,60.76
2017-08-09T07:39:04.021Z,59.99
2017-08-09T07:40:13.084Z,59.89
2017-08-09T07:41:22.190Z,59.89
2017-08-09T07:42:31.221Z,59.7
2017-08-09T07:43:40.312Z,59.02
2017-08-09T07:44:49.337Z,58.45
2017-08-09T07:45:58.300Z,57.77
2017-08-09T07:47:07.252Z,57.48
2017-08-09T07:48:16.361Z,57.29
2017-08-09T07:49:25.416Z,56.71
2017-08-09T07:50:34.483Z,57.29
2017-08-09T07:51:43.553Z,56.51
2017-08-09T07:52:52.675Z,56.13
2017-08-09T07:54:01.819Z,56.22
2017-08-09T07:55:10.906Z,56.13
2017-08-09T07:56:19.979Z,56.22
2017-08-09T07:57:28.975Z,56.41
2017-08-09T07:58:38.179Z,56.13
2017-08-09T07:59:47.482Z,56.41
2017-08-09T08:00:56.445Z,56.61
2017-08-09T08:02:05.425Z,56.15
2017-08-09T08:03:14.460Z,55.93
2017-08-09T08:04:23.527Z,55.65
2017-08-09T08:05:32.522Z,55.74
2017-08-09T08:06:41.605Z,55.83
2017-08-09T08:07:50.594Z,55.87
2017-08-09T08:08:59.553Z,55.74
2017-08-09T08:10:08.685Z,56.22
2017-08-09T08:11:17.723Z,55.74
2017-08-09T08:12:26.775Z,55.74
2017-08-09T08:13:35.840Z,55.74
2017-08-09T08:14:44.805Z,55.26
2017-08-09T08:15:53.767Z,55.07
2017-08-09T08:17:02.726Z,55.07
2017-08-09T08:18:11.791Z,55.45
2017-08-09T08:19:20.775Z,55.45
2017-08-09T08:20:29.989Z,55.26
2017-08-09T08:21:39.046Z,55.16
2017-08-09T08:22:48.057Z,55.16
2017-08-09T08:23:57.082Z,55.07
2017-08-09T08:25:06.056Z,54.49
2017-08-09T08:26:15.009Z,54.39
2017-08-09T08:27:24.104Z,54.61
2017-08-09T08:28:33.071Z,53.71
2017-08-09T08:29:42.161Z,53.81
2017-08-09T08:30:51.121Z,53.81
2017-08-09T08:32:00.145Z,53.71
2017-08-09T08:33:09.292Z,54.03
2017-08-09T08:34:18.283Z,53.71
2017-08-09T08:35:27.253Z,53.42
2017-08-09T08:36:36.211Z,52.65
2017-08-09T08:37:45.188Z,52.36
2017-08-09T08:38:54.156Z,52.65
2017-08-09T08:40:03.173Z,52.65
2017-08-09T08:41:12.289Z,52.07
2017-08-09T08:42:21.426Z,52.07
2017-08-09T08:43:30.578Z,52.17
2017-08-09T08:44:39.534Z,52.36
2017-08-09T08:45:48.515Z,51.78
2017-08-09T08:46:57.607Z,51.87
2017-08-09T08:48:06.563Z,51.61
2017-08-09T08:49:15.778Z,51.49
2017-08-09T08:50:24.732Z,51.49
2017-08-09T08:51:33.694Z,51.42
2017-08-09T08:52:42.702Z,51.32
2017-08-09T08:53:51.896Z,51.51
2017-08-09T08:55:01.238Z,51.32
2017-08-09T08:56:10.979Z,51.51
2017-08-09T08:57:19.992Z,51.61
2017-08-09T08:58:29.090Z,52.19
2017-08-09T08:59:38.049Z,51.71
2017-08-09T09:00:47.193Z,51.71
2017-08-09T09:01:56.151Z,51.54
2017-08-09T09:03:05.125Z,52.02
2017-08-09T09:04:14.162Z,52.09
2017-08-09T09:05:23.253Z,51.73
2017-08-09T09:06:32.291Z,51.44
2017-08-09T09:07:41.290Z,51.42
2017-08-09T09:08:50.271Z,51.73
2017-08-09T09:09:59.652Z,51.44
2017-08-09T09:11:08.712Z,51.35
2017-08-09T09:12:17.718Z,52.22
2017-08-09T09:13:26.817Z,52.12
2017-08-09T09:14:35.825Z,52.51
2017-08-09T09:15:44.818Z,52.8
2017-08-09T09:16:53.799Z,51.93
2017-08-09T09:18:02.789Z,51.83
2017-08-09T09:19:11.779Z,51.83
2017-08-09T09:20:20.784Z,51.15
2017-08-09T09:21:29.773Z,50.96
2017-08-09T09:22:38.759Z,51.54
2017-08-09T09:23:47.745Z,51.44
2017-08-09T09:24:56.728Z,51.44
2017-08-09T09:26:05.704Z,51.25
2017-08-09T09:27:14.688Z,51.35
2017-08-09T09:28:23.673Z,51.54
2017-08-09T09:29:32.654Z,51.15
2017-08-09T09:30:41.641Z,51.35
2017-08-09T09:31:50.635Z,51.25
2017-08-09T09:32:59.625Z,51.44
2017-08-09T09:34:08.936Z,51.25
2017-08-09T09:35:17.926Z,51.64
2017-08-09T09:36:26.917Z,51.66
2017-08-09T09:37:35.921Z,51.44
2017-08-09T09:38:44.895Z,51.28
2017-08-09T09:39:53.888Z,51.37
2017-08-09T09:41:02.876Z,51.28
2017-08-09T09:42:11.868Z,51.47
2017-08-09T09:43:20.875Z,51.18
2017-08-09T09:44:29.869Z,51.08
2017-08-09T09:45:38.858Z,50.98
2017-08-09T09:46:47.851Z,50.79
2017-08-09T09:47:56.836Z,50.98
2017-08-09T09:49:05.816Z,51.28
2017-08-09T09:50:14.819Z,51.37
2017-08-09T09:51:24.125Z,51.47
2017-08-09T09:52:33.118Z,51.37
2017-08-09T09:53:42.117Z,51.28
2017-08-09T09:54:51.100Z,51.37
2017-08-09T09:56:00.410Z,51.66
2017-08-09T09:57:09.424Z,51.47
2017-08-09T09:58:18.414Z,51.66
2017-08-09T09:59:27.396Z,51.56
2017-08-09T10:00:36.699Z,51.47
2017-08-09T10:01:45.675Z,52.14
2017-08-09T10:02:54.659Z,52.14
2017-08-09T10:04:03.635Z,52.66
2017-08-09T10:05:12.590Z,52.63
2017-08-09T10:06:21.551Z,51.98
2017-08-09T10:07:30.521Z,51.86
2017-08-09T10:08:39.480Z,52.34
2017-08-09T10:09:48.444Z,51.98
2017-08-09T10:10:57.417Z,51.98
2017-08-09T10:12:06.375Z,51.98
2017-08-09T10:13:15.342Z,52.27
2017-08-09T10:14:24.356Z,52.08
2017-08-09T10:15:33.322Z,51.88
2017-08-09T10:16:42.279Z,52.36
2017-08-09T10:17:51.256Z,51.98
2017-08-09T10:19:00.240Z,52.17
2017-08-09T10:20:09.238Z,52.36
2017-08-09T10:21:18.220Z,52.29
2017-08-09T10:22:27.210Z,52.46
2017-08-09T10:23:36.192Z,52.66
2017-08-09T10:24:45.172Z,52.85
2017-08-09T10:25:54.162Z,52.87
2017-08-09T10:27:03.137Z,52.87
2017-08-09T10:28:12.101Z,52.87
2017-08-09T10:29:21.063Z,52.78
2017-08-09T10:30:30.016Z,52.97
2017-08-09T10:31:38.986Z,53.17
2017-08-09T10:32:48.268Z,53.17
2017-08-09T10:33:57.229Z,53.36
2017-08-09T10:35:06.188Z,53.55
2017-08-09T10:36:15.191Z,53.36
2017-08-09T10:37:24.151Z,53.45
2017-08-09T10:38:33.136Z,53.26
2017-08-09T10:39:42.094Z,53.17
2017-08-09T10:40:51.057Z,54.03
2017-08-09T10:42:00.082Z,53.85
2017-08-09T10:43:10.231Z,53.94
2017-08-09T10:44:21.401Z,53.85
2017-08-09T10:45:34.299Z,53.75
2017-08-09T10:46:43.788Z,54.52
2017-08-09T10:47:52.764Z,54.43
2017-08-09T10:49:01.834Z,54.23
2017-08-09T10:50:11.309Z,54.33
2017-08-09T10:51:20.546Z,54.03
2017-08-09T10:52:29.620Z,53.77
2017-08-09T10:53:38.771Z,54.06
2017-08-09T10:54:47.863Z,53.97
2017-08-09T10:55:56.839Z,53.97
2017-08-09T10:57:06.036Z,53.97
2017-08-09T10:58:15.415Z,53.97
2017-08-09T10:59:24.504Z,53.97
2017-08-09T11:00:33.676Z,53.39
2017-08-09T11:01:42.771Z,53.67
2017-08-09T11:02:51.986Z,53.39
2017-08-09T11:04:01.081Z,53.77
2017-08-09T11:05:10.209Z,53.39
2017-08-09T11:06:19.367Z,53.58
2017-08-09T11:07:28.334Z,53.49
2017-08-09T11:08:38.066Z,53.77
2017-08-09T11:09:47.259Z,53.58
2017-08-09T11:10:56.236Z,53.49
2017-08-09T11:12:05.353Z,53.29
2017-08-09T11:13:14.329Z,53.97
2017-08-09T11:14:23.402Z,53.87
2017-08-09T11:15:32.445Z,53.39
2017-08-09T11:16:41.405Z,52.8
2017-08-09T11:17:50.393Z,53.19
2017-08-09T11:18:59.352Z,52.8
2017-08-09T11:20:08.305Z,52.8
2017-08-09T11:21:17.348Z,52.61
2017-08-09T11:22:27.039Z,52.12
2017-08-09T11:23:36.179Z,52.03
2017-08-09T11:24:45.522Z,51.93
2017-08-09T11:25:54.597Z,51.67
2017-08-09T11:27:03.642Z,51.47
2017-08-09T11:28:12.719Z,51.57
2017-08-09T11:29:22.016Z,51.28
2017-08-09T11:30:30.971Z,51.47
2017-08-09T11:31:39.981Z,51.54
2017-08-09T11:32:49.013Z,51.47
2017-08-09T11:33:58.058Z,51.67
2017-08-09T11:35:07.096Z,51.76
2017-08-09T11:36:16.090Z,51.09
2017-08-09T11:37:25.059Z,50.89
2017-08-09T11:38:34.076Z,50.89
2017-08-09T11:39:43.051Z,50.79
2017-08-09T11:40:52.016Z,50.5
2017-08-09T11:42:00.987Z,50.7
2017-08-09T11:43:10.021Z,50.89
2017-08-09T11:44:19.058Z,50.82
2017-08-09T11:45:28.074Z,50.43
2017-08-09T11:46:37.147Z,50.14
2017-08-09T11:47:46.130Z,50.62
2017-08-09T11:48:55.124Z,50.5
2017-08-09T11:50:04.128Z,50.53
2017-08-09T11:51:13.094Z,50.82
2017-08-09T11:52:22.061Z,50.53
2017-08-09T11:53:31.103Z,50.72
2017-08-09T11:54:40.101Z,50.72
2017-08-09T11:55:49.093Z,50.5
2017-08-09T11:56:58.053Z,50.53
2017-08-09T11:58:07.009Z,50.24
2017-08-09T11:59:16.112Z,49.95
2017-08-09T12:00:25.072Z,50.5
2017-08-09T12:01:34.164Z,50.34
2017-08-09T12:02:43.133Z,50.24
2017-08-09T12:03:52.466Z,49.75
2017-08-09T12:05:01.500Z,49.75
2017-08-09T12:06:10.567Z,49.07
2017-08-09T12:07:19.853Z,49.27
2017-08-09T12:08:28.824Z,49.85
2017-08-09T12:09:38.123Z,50.24
2017-08-09T12:10:47.098Z,50.53
2017-08-09T12:11:56.054Z,50.34
2017-08-09T12:13:05.022Z,50.14
2017-08-09T12:14:14.000Z,49.56
2017-08-09T12:15:23.139Z,49.37
2017-08-09T12:16:32.113Z,49.85
2017-08-09T12:17:41.187Z,49.66
2017-08-09T12:18:50.157Z,48.69
2017-08-09T12:19:59.274Z,48.52
2017-08-09T12:21:08.376Z,47.42
2017-08-09T12:22:17.568Z,46.84
2017-08-09T12:23:26.638Z,46.94
2017-08-09T12:24:35.711Z,46.96
2017-08-09T12:25:44.803Z,47.33
2017-08-09T12:26:53.869Z,47.23
2017-08-09T12:28:02.944Z,48.2
2017-08-09T12:29:12.015Z,47.81
2017-08-09T12:30:21.037Z,48.1
2017-08-09T12:31:30.047Z,48.3
2017-08-09T12:32:39.082Z,47.62
2017-08-09T12:33:48.047Z,48.2
2017-08-09T12:34:57.018Z,48.1
2017-08-09T12:36:06.283Z,48.1
2017-08-09T12:37:15.608Z,47.62
2017-08-09T12:38:24.574Z,47.52
2017-08-09T12:39:33.541Z,47.93
2017-08-09T12:40:42.502Z,47.91
2017-08-09T12:41:51.468Z,47.64
2017-08-09T12:43:00.444Z,46.94
2017-08-09T12:44:09.410Z,46.96
2017-08-09T12:45:18.718Z,47.64
2017-08-09T12:46:27.691Z,47.45
2017-08-09T12:47:36.664Z,47.35
2017-08-09T12:48:45.624Z,48.03
2017-08-09T12:49:54.595Z,47.74
2017-08-09T12:51:03.547Z,48.13
2017-08-09T12:52:12.514Z,48.13
2017-08-09T12:53:21.482Z,47.35
2017-08-09T12:54:30.442Z,47.25
2017-08-09T12:55:39.411Z,47.16
2017-08-09T12:56:48.378Z,47.72
2017-08-09T12:57:57.339Z,47.52
2017-08-09T12:59:06.300Z,47.72
2017-08-09T13:00:15.257Z,48.39
2017-08-09T13:01:24.227Z,48.39
2017-08-09T13:02:33.190Z,48
2017-08-09T13:03:42.168Z,48.2
2017-08-09T13:04:51.139Z,48
2017-08-09T13:06:00.104Z,47.72
2017-08-09T13:07:09.068Z,48.3
2017-08-09T13:08:18.033Z,48.1
2017-08-09T13:09:27.005Z,47.91
2017-08-09T13:10:35.980Z,48
2017-08-09T13:11:45.110Z,47.81
2017-08-09T13:12:54.277Z,47.23
2017-08-09T13:14:03.416Z,47.03
2017-08-09T13:15:12.499Z,46.92
2017-08-09T13:16:21.572Z,47.6
2017-08-09T13:17:30.918Z,47.2
2017-08-09T13:18:39.947Z,47.02
2017-08-09T13:19:48.985Z,47.11
2017-08-09T13:20:58.091Z,46.92
2017-08-09T13:22:07.123Z,46.75
2017-08-09T13:23:16.187Z,46.65
2017-08-09T13:24:25.280Z,47.03
2017-08-09T13:25:34.321Z,47.33
2017-08-09T13:26:43.382Z,47.42
2017-08-09T13:27:52.409Z,46.75
2017-08-09T13:29:01.462Z,46.94
2017-08-09T13:30:10.886Z,47.62
2017-08-09T13:31:20.097Z,47.91
2017-08-09T13:32:29.300Z,47.52
2017-08-09T13:33:38.444Z,46.94
2017-08-09T13:34:47.447Z,45.97
2017-08-09T13:35:56.687Z,45.78
2017-08-09T13:37:05.688Z,45.68
2017-08-09T13:38:14.681Z,46.26
2017-08-09T13:39:23.651Z,46.84
2017-08-09T13:40:32.711Z,46.84
2017-08-09T13:41:41.799Z,45.87
2017-08-09T13:42:50.822Z,44.42
2017-08-09T13:43:59.838Z,44.03
2017-08-09T13:45:08.852Z,44.71
2017-08-09T13:46:17.904Z,44.51
2017-08-09T13:47:26.966Z,45
2017-08-09T13:48:36.127Z,45.39
2017-08-09T13:49:45.244Z,45
2017-08-09T13:50:54.206Z,45.39
2017-08-09T13:52:03.253Z,45.68
2017-08-09T13:53:12.360Z,45.39
2017-08-09T13:54:21.661Z,44.51
2017-08-09T13:55:30.743Z,44.2
2017-08-09T13:56:39.920Z,45.17
2017-08-09T13:57:48.903Z,45.58
2017-08-09T13:58:58.053Z,45.2
2017-08-09T14:00:07.074Z,45.39
2017-08-09T14:01:16.179Z,45.78
2017-08-09T14:02:25.145Z,46.07
2017-08-09T14:03:34.239Z,45.68
2017-08-09T14:04:43.283Z,44.81
2017-08-09T14:05:52.272Z,45.29
2017-08-09T14:07:01.236Z,45.78
2017-08-09T14:08:10.216Z,44.13
2017-08-09T14:09:19.577Z,44.81
2017-08-09T14:10:28.556Z,44.13
2017-08-09T14:11:37.540Z,45.68
2017-08-09T14:12:46.545Z,45.78
2017-08-09T14:13:55.523Z,46.94
2017-08-09T14:15:04.510Z,46.94
2017-08-09T14:16:13.495Z,46.55
2017-08-09T14:17:22.495Z,46.07
2017-08-09T14:18:31.474Z,46.16
2017-08-09T14:19:40.462Z,46.65
2017-08-09T14:20:49.454Z,46.75
2017-08-09T14:21:58.443Z,46.26
2017-08-09T14:23:07.467Z,46.16
2017-08-09T14:24:16.460Z,46.16
2017-08-09T14:25:25.454Z,47.13
2017-08-09T14:26:34.445Z,47.03
2017-08-09T14:27:43.437Z,46.94
2017-08-09T14:28:52.417Z,46.16
2017-08-09T14:30:01.411Z,46.07
2017-08-09T14:31:10.399Z,45.48
2017-08-09T14:32:19.390Z,45.1
2017-08-09T14:33:28.703Z,45.58
2017-08-09T14:34:37.693Z,45.48
2017-08-09T14:35:46.670Z,45.58
2017-08-09T14:36:55.673Z,45.68
2017-08-09T14:38:04.657Z,45.68
2017-08-09T14:39:13.660Z,47.13
2017-08-09T14:40:22.648Z,47.03
2017-08-09T14:41:31.645Z,46.55
2017-08-09T14:42:40.630Z,46.92
2017-08-09T14:43:49.633Z,46.65
2017-08-09T14:44:58.620Z,46.92
2017-08-09T14:46:07.599Z,47.03
2017-08-09T14:47:16.562Z,46.36
2017-08-09T14:48:25.517Z,46.55
2017-08-09T14:49:34.816Z,45.97
2017-08-09T14:50:43.782Z,45.87
2017-08-09T14:51:53.082Z,46.07